EDFM METAR and TAF | Updated Today

EDFM METAR

Mannheim-City Airport

Observation time: 6 min. ago

EDFM 291150Z 31010KT 250V350 CAVOK 16/01 Q1013

Need help? Read our tutorial on how to read METARs or read the parsed version below.

Mannheim-City Airport (EDFM) METAR

  • Weather conditions on Sun, 29 May 2022 11:50:00 +0000 (6 min. ago):
  • Present conditions: Dry
  • Clouds: Clear skies
  • Visibility: Greater than 10 km
  • Wind: 310 degrees at 10 knots
  • Temperature: 16 celsius
  • Dew point: 1 celsius
  • Pressure: 1013 millibars
  • Remarks: None


Useful to know...

EDFM TAF

Mannheim-City Airport

TAF EDFM 271700Z 2718/2721 29008KT CAVOK
Observation time: 42:56 hr. ago
Need help? Read our tutorial on how to read TAFs or read the parsed version below.

Parsed version of TAF for Mannheim-City Airport (EDFM)

  • From 27 May at 18:00 UTC, to day 27 of the month at 21:00 UTC
  • Visibility: Greater than 10 km
  • Wind: 290 degrees at 8